createdAt,value
2018-08-23T00:01:31.838Z,55973.00
2018-08-23T00:04:05.116Z,55956.55
2018-08-23T00:06:34.367Z,55986.37
2018-08-23T00:09:04.682Z,55992.54
2018-08-23T00:11:35.506Z,55965.80
2018-08-23T00:14:04.599Z,55963.75
2018-08-23T00:16:42.076Z,55962.72
2018-08-23T00:19:11.226Z,55983.28
2018-08-23T00:21:41.983Z,55957.58
2018-08-23T00:24:13.957Z,55975.06
2018-08-23T00:26:56.787Z,55979.17
2018-08-23T00:29:26.912Z,55970.95
2018-08-23T00:31:58.676Z,56003.85
2018-08-23T00:34:30.224Z,55969.92
2018-08-23T00:36:59.596Z,55961.69
2018-08-23T00:39:29.341Z,55952.44
2018-08-23T00:42:05.511Z,55973.00
2018-08-23T00:44:56.308Z,55948.32
2018-08-23T00:47:27.531Z,55994.59
2018-08-23T00:49:56.706Z,55985.34
2018-08-23T00:52:44.604Z,56006.93
2018-08-23T00:55:23.590Z,55979.17
2018-08-23T00:57:52.772Z,55997.68
2018-08-23T01:00:23.173Z,55969.92
2018-08-23T01:02:55.444Z,55992.54
2018-08-23T01:05:29.813Z,55997.68
2018-08-23T01:07:58.942Z,55995.62
2018-08-23T01:10:28.069Z,56000.76
2018-08-23T01:12:58.860Z,55971.97
2018-08-23T01:15:28.465Z,55995.62
2018-08-23T01:18:14.781Z,55985.34
2018-08-23T01:20:44.573Z,55985.34
2018-08-23T01:23:13.751Z,55993.57
2018-08-23T01:25:44.044Z,55999.73
2018-08-23T01:28:13.193Z,56001.79
2018-08-23T01:30:42.723Z,55983.28
2018-08-23T01:33:14.941Z,55991.51
2018-08-23T01:35:45.310Z,56012.07
2018-08-23T01:38:14.958Z,55986.37
2018-08-23T01:40:44.222Z,55989.45
2018-08-23T01:43:13.390Z,55975.06
2018-08-23T01:45:42.576Z,55984.31
2018-08-23T01:48:12.131Z,56000.76
2018-08-23T01:50:41.258Z,55985.34
2018-08-23T01:53:10.490Z,55999.73
2018-08-23T01:55:39.740Z,55985.34
2018-08-23T01:58:08.869Z,56004.87
2018-08-23T02:00:38.024Z,56005.90
2018-08-23T02:03:07.154Z,56017.21
2018-08-23T02:05:37.920Z,55989.45
2018-08-23T02:08:07.720Z,55999.73
2018-08-23T02:10:36.818Z,56001.79
2018-08-23T02:13:10.673Z,56012.07
2018-08-23T02:15:44.851Z,55996.65
2018-08-23T02:18:14.088Z,55989.45
2018-08-23T02:20:43.254Z,55983.28
2018-08-23T02:23:12.439Z,55997.68
2018-08-23T02:25:41.579Z,56003.85
2018-08-23T02:28:13.586Z,55950.38
2018-08-23T02:30:55.149Z,55985.34
2018-08-23T02:33:24.724Z,55985.34
2018-08-23T02:36:22.366Z,56003.85
2018-08-23T02:39:00.132Z,55998.71
2018-08-23T02:41:29.494Z,56003.85
2018-08-23T02:43:58.602Z,55992.54
2018-08-23T02:46:27.741Z,55982.25
2018-08-23T02:48:56.909Z,56007.96
2018-08-23T02:51:40.512Z,56020.30
2018-08-23T02:54:14.094Z,55999.73
2018-08-23T02:56:51.228Z,56004.87
2018-08-23T02:59:20.376Z,56001.79
2018-08-23T03:01:50.416Z,55989.45
2018-08-23T03:04:28.366Z,55999.73
2018-08-23T03:07:00.068Z,56018.24
2018-08-23T03:09:30.993Z,55983.28
2018-08-23T03:12:01.338Z,56001.79
2018-08-23T03:14:31.039Z,55982.25
2018-08-23T03:17:27.301Z,56003.85
2018-08-23T03:20:04.917Z,56016.19
2018-08-23T03:22:34.783Z,55989.45
2018-08-23T03:25:05.347Z,55990.48
2018-08-23T03:27:34.616Z,55994.59
2018-08-23T03:30:04.771Z,56007.96
2018-08-23T03:32:33.952Z,56000.76
2018-08-23T03:35:03.184Z,56015.16
2018-08-23T03:37:32.352Z,56015.16
2018-08-23T03:40:01.565Z,56020.30
2018-08-23T03:42:30.692Z,56032.64
2018-08-23T03:45:00.582Z,56001.79
2018-08-23T03:47:38.316Z,56014.13
2018-08-23T03:50:08.865Z,55992.54
2018-08-23T03:52:41.177Z,55993.57
2018-08-23T03:55:11.870Z,55988.43
2018-08-23T03:57:46.272Z,55970.95
2018-08-23T04:00:15.459Z,56011.05
2018-08-23T04:02:44.537Z,56008.99
2018-08-23T04:05:18.793Z,55991.51
2018-08-23T04:07:47.942Z,56018.24
2018-08-23T04:10:17.175Z,56023.38
2018-08-23T04:12:46.308Z,56002.82
2018-08-23T04:15:26.420Z,56017.21
2018-08-23T04:17:55.567Z,55981.23
2018-08-23T04:20:24.693Z,56007.96
2018-08-23T04:22:53.828Z,55998.71
2018-08-23T04:25:23.028Z,55958.61
2018-08-23T04:27:52.159Z,56013.10
2018-08-23T04:30:21.297Z,56028.52
2018-08-23T04:32:50.499Z,55993.57
2018-08-23T04:35:23.707Z,56015.16
2018-08-23T04:37:52.972Z,55985.34
2018-08-23T04:40:22.119Z,55989.45
2018-08-23T04:42:51.259Z,56015.16
2018-08-23T04:45:25.433Z,56007.96
2018-08-23T04:48:02.964Z,56003.85
2018-08-23T04:50:32.120Z,56014.13
2018-08-23T04:53:01.246Z,55999.73
2018-08-23T04:55:30.413Z,56016.19
2018-08-23T04:58:00.235Z,56003.85
2018-08-23T05:00:30.082Z,55969.92
2018-08-23T05:02:59.563Z,55989.45
2018-08-23T05:05:28.840Z,55991.51
2018-08-23T05:07:58.001Z,56012.07
2018-08-23T05:10:27.203Z,55980.20
2018-08-23T05:12:56.342Z,56000.76
2018-08-23T05:15:25.583Z,55978.14
2018-08-23T05:17:54.750Z,56027.50
2018-08-23T05:20:23.927Z,56011.05
2018-08-23T05:23:02.228Z,56000.76
2018-08-23T05:25:31.368Z,56000.76
2018-08-23T05:28:17.658Z,55992.54
2018-08-23T05:30:47.536Z,56000.76
2018-08-23T05:33:21.021Z,55982.25
2018-08-23T05:35:50.297Z,55989.45
2018-08-23T05:38:20.226Z,55970.95
2018-08-23T05:40:56.745Z,55979.17
2018-08-23T05:43:25.917Z,55961.69
2018-08-23T05:45:56.847Z,55981.23
2018-08-23T05:48:32.288Z,55982.25
2018-08-23T05:51:10.433Z,55941.13
2018-08-23T05:53:45.571Z,55982.25
2018-08-23T05:56:14.719Z,55952.44
2018-08-23T05:58:43.900Z,55951.41
2018-08-23T06:01:13.038Z,55946.27
2018-08-23T06:03:42.216Z,55962.72
2018-08-23T06:06:11.428Z,55961.69
2018-08-23T06:08:44.372Z,55954.49
2018-08-23T06:11:13.582Z,55990.48
2018-08-23T06:13:42.779Z,55939.07
2018-08-23T06:16:11.970Z,55950.38
2018-08-23T06:18:41.117Z,55941.13
2018-08-23T06:21:10.304Z,55929.82
2018-08-23T06:23:59.564Z,55935.98
2018-08-23T06:26:38.873Z,55961.69
2018-08-23T06:29:08.773Z,55909.25
2018-08-23T06:31:47.637Z,55941.13
2018-08-23T06:34:16.819Z,55938.04
2018-08-23T06:36:46.857Z,55931.87
2018-08-23T06:39:16.015Z,55931.87
2018-08-23T06:41:45.155Z,55929.82
2018-08-23T06:44:14.345Z,55950.38
2018-08-23T06:46:43.485Z,55942.16
2018-08-23T06:49:12.677Z,55940.10
2018-08-23T06:51:41.831Z,55918.50
2018-08-23T06:54:10.997Z,55921.59
2018-08-23T06:56:40.128Z,55879.43
2018-08-23T06:59:10.229Z,55931.87
2018-08-23T07:01:44.778Z,55935.98
2018-08-23T07:04:15.272Z,55920.56
2018-08-23T07:06:44.449Z,55921.59
2018-08-23T07:09:15.444Z,55911.31
2018-08-23T07:11:44.762Z,55911.31
2018-08-23T07:14:15.991Z,55903.08
2018-08-23T07:16:46.410Z,55912.34
2018-08-23T07:19:30.232Z,55911.31
2018-08-23T07:22:01.857Z,55894.86
2018-08-23T07:24:45.737Z,55894.86
2018-08-23T07:27:16.405Z,55896.91
2018-08-23T07:29:48.375Z,55893.83
2018-08-23T07:32:18.559Z,55894.86
2018-08-23T07:34:54.275Z,55892.80
2018-08-23T07:37:23.398Z,55886.63
2018-08-23T07:39:58.072Z,55884.57
2018-08-23T07:42:30.607Z,55875.32
2018-08-23T07:45:00.301Z,55892.80
2018-08-23T07:47:30.013Z,55901.03
2018-08-23T07:50:00.255Z,55876.35
2018-08-23T07:52:31.376Z,55872.24
2018-08-23T07:55:02.687Z,55841.39
2018-08-23T07:57:33.083Z,55855.79
2018-08-23T08:00:04.027Z,55873.27
2018-08-23T08:02:33.152Z,55876.35
2018-08-23T08:05:02.358Z,55849.62
2018-08-23T08:07:32.514Z,55850.64
2018-08-23T08:10:02.780Z,55861.95
2018-08-23T08:12:38.795Z,55855.79
2018-08-23T08:15:10.932Z,55859.90
2018-08-23T08:17:40.063Z,55840.36
2018-08-23T08:20:10.847Z,55836.25
2018-08-23T08:22:39.979Z,55844.48
2018-08-23T08:25:15.609Z,55828.02
2018-08-23T08:27:44.748Z,55820.83
2018-08-23T08:30:15.224Z,55831.11
2018-08-23T08:32:44.750Z,55830.08
2018-08-23T08:35:15.459Z,55838.31
2018-08-23T08:37:46.283Z,55825.97
2018-08-23T08:40:29.937Z,55815.69
2018-08-23T08:42:59.125Z,55860.93
2018-08-23T08:45:28.503Z,55860.93
2018-08-23T08:48:14.317Z,55839.34
2018-08-23T08:50:48.852Z,55833.17
2018-08-23T08:53:18.013Z,55820.83
2018-08-23T08:55:47.194Z,55808.49
2018-08-23T08:58:16.339Z,55806.43
2018-08-23T09:00:51.981Z,55783.81
2018-08-23T09:03:22.700Z,55829.05
2018-08-23T09:05:51.869Z,55824.94
2018-08-23T09:08:21.008Z,55812.60
2018-08-23T09:10:50.206Z,55806.43
2018-08-23T09:13:20.259Z,55820.83
2018-08-23T09:15:50.397Z,55803.35
2018-08-23T09:18:24.756Z,55783.81
2018-08-23T09:20:55.741Z,55715.96
2018-08-23T09:23:25.420Z,55755.02
2018-08-23T09:25:58.417Z,55718.01
2018-08-23T09:28:31.310Z,55689.22
2018-08-23T09:31:05.050Z,55687.17
2018-08-23T09:33:39.885Z,55672.77
2018-08-23T09:36:09.021Z,55694.36
2018-08-23T09:38:44.262Z,55702.59
2018-08-23T09:41:13.405Z,55670.72
2018-08-23T09:43:45.420Z,55691.28
2018-08-23T09:46:17.885Z,55669.69
2018-08-23T09:48:50.981Z,55674.83
2018-08-23T09:51:25.442Z,55689.22
2018-08-23T09:54:02.139Z,55683.05
2018-08-23T09:56:36.433Z,55703.62
2018-08-23T09:59:09.938Z,55729.32
2018-08-23T10:01:48.364Z,55737.55
2018-08-23T10:04:30.840Z,55744.74
2018-08-23T10:07:12.770Z,55769.42
2018-08-23T10:09:48.880Z,55757.08
2018-08-23T10:12:27.642Z,55741.66
2018-08-23T10:15:07.011Z,55737.55
2018-08-23T10:17:46.147Z,55735.49
2018-08-23T10:20:20.644Z,55729.32
2018-08-23T10:23:00.711Z,55755.02
2018-08-23T10:25:44.861Z,55754.00
2018-08-23T10:28:15.166Z,55806.43
2018-08-23T10:30:44.572Z,55780.73
2018-08-23T10:33:13.746Z,55820.83
2018-08-23T10:35:47.607Z,55796.15
2018-08-23T10:38:18.603Z,55764.28
2018-08-23T10:40:48.836Z,55782.79
2018-08-23T10:43:22.035Z,55752.97
2018-08-23T10:45:51.147Z,55766.34
2018-08-23T10:48:20.540Z,55763.25
2018-08-23T10:50:50.458Z,55726.24
2018-08-23T10:53:19.994Z,55754.00
2018-08-23T10:55:49.115Z,55765.31
2018-08-23T10:58:18.228Z,55804.38
2018-08-23T11:00:47.347Z,55800.27
2018-08-23T11:03:16.481Z,55770.45
2018-08-23T11:05:45.940Z,55762.22
2018-08-23T11:08:21.738Z,55769.42
2018-08-23T11:11:53.912Z,55773.53
2018-08-23T11:14:28.368Z,55761.20
2018-08-23T11:17:02.789Z,55819.80
2018-08-23T11:19:37.163Z,55809.52
2018-08-23T11:22:06.292Z,55820.83
2018-08-23T11:24:35.444Z,55804.38
2018-08-23T11:27:04.615Z,55818.77
2018-08-23T11:29:33.820Z,55839.34
2018-08-23T11:32:03.066Z,55856.81
2018-08-23T11:34:32.221Z,55862.98
2018-08-23T11:37:01.349Z,55861.95
2018-08-23T11:39:30.540Z,55872.24
2018-08-23T11:41:59.712Z,55847.56
2018-08-23T11:44:28.913Z,55834.20
2018-08-23T11:46:58.116Z,55864.01
2018-08-23T11:49:27.326Z,55842.42
2018-08-23T11:51:56.553Z,55823.91
2018-08-23T11:54:25.826Z,55820.83
2018-08-23T11:56:55.012Z,55855.79
2018-08-23T11:59:24.194Z,55834.20
2018-08-23T12:01:53.324Z,55833.17
2018-08-23T12:04:22.457Z,55838.31
2018-08-23T12:06:55.749Z,55836.25
2018-08-23T12:09:30.254Z,55837.28
2018-08-23T12:11:59.768Z,55813.63
2018-08-23T12:14:28.974Z,55802.32
2018-08-23T12:16:58.184Z,55842.42
2018-08-23T12:19:27.340Z,55823.91
2018-08-23T12:21:56.464Z,55810.55
2018-08-23T12:24:25.600Z,55802.32
2018-08-23T12:26:54.805Z,55812.60
2018-08-23T12:29:23.920Z,55802.32
2018-08-23T12:31:55.276Z,55813.63
2018-08-23T12:34:35.744Z,55779.70
2018-08-23T12:37:10.353Z,55786.90
2018-08-23T12:39:45.040Z,55796.15
2018-08-23T12:42:19.598Z,55808.49
2018-08-23T12:44:52.701Z,55780.73
2018-08-23T12:47:21.990Z,55800.27
2018-08-23T12:49:51.275Z,55803.35
2018-08-23T12:52:20.453Z,55816.71
2018-08-23T12:54:49.589Z,55798.21
2018-08-23T12:57:18.765Z,55808.49
2018-08-23T12:59:47.863Z,55799.24
2018-08-23T13:02:17.146Z,55794.10
2018-08-23T13:04:46.257Z,55780.73
2018-08-23T13:07:15.456Z,55796.15
2018-08-23T13:09:44.909Z,55799.24
2018-08-23T13:12:14.203Z,55799.24
2018-08-23T13:14:43.381Z,55794.10
2018-08-23T13:17:12.835Z,55798.21
2018-08-23T13:19:42.061Z,55785.87
2018-08-23T13:22:11.169Z,55795.12
2018-08-23T13:24:45.647Z,55825.97
2018-08-23T13:27:14.798Z,55803.35
2018-08-23T13:29:44.020Z,55802.32
2018-08-23T13:32:13.246Z,55787.93
2018-08-23T13:34:42.341Z,55806.43
2018-08-23T13:37:11.488Z,55794.10
2018-08-23T13:39:40.642Z,55798.21
2018-08-23T13:42:09.760Z,55766.34
2018-08-23T13:44:38.858Z,55800.27
2018-08-23T13:47:08.015Z,55798.21
2018-08-23T13:49:37.189Z,55811.57
2018-08-23T13:52:06.358Z,55793.07
2018-08-23T13:54:35.627Z,55807.46
2018-08-23T13:57:05.909Z,55784.84
2018-08-23T13:59:35.228Z,55806.43
2018-08-23T14:02:04.491Z,55813.63
2018-08-23T14:04:33.650Z,55812.60
2018-08-23T14:07:02.823Z,55816.71
2018-08-23T14:09:32.013Z,55802.32
2018-08-23T14:12:01.222Z,55779.70
2018-08-23T14:14:31.061Z,55802.32
2018-08-23T14:17:00.538Z,55788.95
2018-08-23T14:19:29.795Z,55847.56
2018-08-23T14:21:58.967Z,55827.00
2018-08-23T14:24:28.245Z,55810.55
2018-08-23T14:26:57.385Z,55799.24
2018-08-23T14:29:26.501Z,55810.55
2018-08-23T14:31:55.719Z,55789.98
2018-08-23T14:34:24.983Z,55846.53
2018-08-23T14:36:54.166Z,55831.11
2018-08-23T14:39:23.331Z,55827.00
2018-08-23T14:41:52.483Z,55836.25
2018-08-23T14:44:21.628Z,55822.88
2018-08-23T14:46:56.262Z,55817.75
2018-08-23T14:49:30.702Z,55819.80
2018-08-23T14:51:59.892Z,55809.52
2018-08-23T14:54:34.291Z,55812.60
2018-08-23T14:57:08.672Z,55821.86
2018-08-23T14:59:37.869Z,55829.05
2018-08-23T15:02:07.661Z,55834.20
2018-08-23T15:04:36.985Z,55843.45
2018-08-23T15:07:06.525Z,55837.28
2018-08-23T15:09:35.766Z,55820.83
2018-08-23T15:12:04.870Z,55811.57
2018-08-23T15:14:34.059Z,55824.94
2018-08-23T15:17:03.223Z,55847.56
2018-08-23T15:19:32.385Z,55824.94
2018-08-23T15:22:01.654Z,55816.71
2018-08-23T15:24:30.792Z,55857.84
2018-08-23T15:27:00.090Z,55839.34
2018-08-23T15:29:29.189Z,55866.07
2018-08-23T15:31:58.366Z,55850.64
2018-08-23T15:34:27.519Z,55836.25
2018-08-23T15:36:56.645Z,55837.28
2018-08-23T15:39:25.834Z,55834.20
2018-08-23T15:41:54.959Z,55835.22
2018-08-23T15:44:24.154Z,55859.90
2018-08-23T15:46:53.291Z,55857.84
2018-08-23T15:49:22.466Z,55851.68
2018-08-23T15:51:51.628Z,55857.84
2018-08-23T15:54:20.833Z,55837.28
2018-08-23T15:56:50.028Z,55844.48
2018-08-23T15:59:19.245Z,55851.68
2018-08-23T16:01:48.426Z,55854.76
2018-08-23T16:04:17.586Z,55847.56
2018-08-23T16:06:46.764Z,55845.50
2018-08-23T16:09:15.916Z,55859.90
2018-08-23T16:11:45.048Z,55835.22
2018-08-23T16:14:14.191Z,55838.31
2018-08-23T16:16:48.522Z,55853.73
2018-08-23T16:19:22.906Z,55875.32
2018-08-23T16:21:56.034Z,55853.73
2018-08-23T16:24:25.981Z,55856.81
2018-08-23T16:27:00.512Z,55867.10
2018-08-23T16:29:29.901Z,55839.34
2018-08-23T16:31:58.996Z,55870.18
2018-08-23T16:34:28.360Z,55873.27
2018-08-23T16:36:57.498Z,55850.64
2018-08-23T16:39:26.620Z,55856.81
2018-08-23T16:41:55.780Z,55868.12
2018-08-23T16:44:24.903Z,55872.24
2018-08-23T16:46:54.023Z,55867.10
2018-08-23T16:49:23.141Z,55831.11
2018-08-23T16:51:52.310Z,55846.53
2018-08-23T16:54:21.414Z,55860.93
2018-08-23T16:56:50.540Z,55902.05
2018-08-23T16:59:19.643Z,55876.35
2018-08-23T17:01:49.618Z,55884.57
2018-08-23T17:04:18.761Z,55916.45
2018-08-23T17:06:47.891Z,55892.80
2018-08-23T17:09:17.054Z,55898.97
2018-08-23T17:11:46.145Z,55886.63
2018-08-23T17:14:15.911Z,55923.65
2018-08-23T17:16:50.508Z,55892.80
2018-08-23T17:19:19.677Z,55925.70
2018-08-23T17:21:48.755Z,55913.36
2018-08-23T17:24:17.957Z,55915.42
2018-08-23T17:26:47.126Z,55942.16
2018-08-23T17:29:16.301Z,55908.23
2018-08-23T17:31:45.411Z,55944.21
2018-08-23T17:34:14.567Z,55955.52
2018-08-23T17:36:43.703Z,55912.34
2018-08-23T17:39:12.844Z,55916.45
2018-08-23T17:41:41.985Z,55946.27
2018-08-23T17:44:11.121Z,55926.73
2018-08-23T17:46:40.281Z,55920.56
2018-08-23T17:49:09.420Z,55913.36
2018-08-23T17:51:38.753Z,55940.10
2018-08-23T17:54:07.900Z,55939.07
2018-08-23T17:56:37.104Z,55913.36
2018-08-23T17:59:06.229Z,55928.79
2018-08-23T18:01:35.383Z,55943.18
2018-08-23T18:04:04.496Z,55929.82
2018-08-23T18:06:33.713Z,55905.14
2018-08-23T18:09:02.876Z,55944.21
2018-08-23T18:11:32.076Z,55975.06
2018-08-23T18:14:01.244Z,55919.54
2018-08-23T18:16:35.529Z,55919.54
2018-08-23T18:19:04.675Z,55940.10
2018-08-23T18:21:33.778Z,55921.59
2018-08-23T18:24:02.883Z,55956.55
2018-08-23T18:26:31.981Z,55922.62
2018-08-23T18:29:01.122Z,55973.00
2018-08-23T18:31:37.035Z,55934.96
2018-08-23T18:34:06.238Z,55928.79
2018-08-23T18:36:35.358Z,55930.84
2018-08-23T18:39:06.650Z,55941.13
2018-08-23T18:41:35.842Z,55935.98
2018-08-23T18:44:04.968Z,55910.28
2018-08-23T18:46:34.159Z,55946.27
2018-08-23T18:49:03.544Z,55946.27
2018-08-23T18:51:32.959Z,55962.72
2018-08-23T18:54:02.163Z,55923.65
2018-08-23T18:56:31.400Z,55922.62
2018-08-23T18:59:00.608Z,55943.18
2018-08-23T19:01:29.786Z,55943.18
2018-08-23T19:03:59.031Z,55942.16
2018-08-23T19:06:33.543Z,55965.80
2018-08-23T19:09:03.301Z,55937.01
2018-08-23T19:11:32.451Z,55939.07
2018-08-23T19:14:01.552Z,55966.83
2018-08-23T19:16:35.887Z,55956.55
2018-08-23T19:19:05.234Z,55950.38
2018-08-23T19:21:34.270Z,55949.35
2018-08-23T19:24:03.360Z,55979.17
2018-08-23T19:26:32.521Z,55966.83
2018-08-23T19:29:01.680Z,55976.09
2018-08-23T19:31:30.999Z,55975.06
2018-08-23T19:34:00.004Z,55954.49
2018-08-23T19:36:29.192Z,55991.51
2018-08-23T19:38:58.322Z,55978.14
2018-08-23T19:41:27.434Z,55985.34
2018-08-23T19:43:56.671Z,55966.83
2018-08-23T19:46:31.259Z,55956.55
2018-08-23T19:49:05.808Z,55952.44
2018-08-23T19:51:34.921Z,55956.55
2018-08-23T19:54:04.107Z,55956.55
2018-08-23T19:56:33.299Z,55960.66
2018-08-23T19:59:02.473Z,55985.34
2018-08-23T20:01:31.841Z,55957.58
2018-08-23T20:04:00.957Z,56007.96
2018-08-23T20:06:30.203Z,55952.44
2018-08-23T20:08:59.316Z,55979.17
2018-08-23T20:11:28.453Z,55984.31
2018-08-23T20:13:57.555Z,55967.86
2018-08-23T20:16:26.707Z,55971.97
2018-08-23T20:18:55.846Z,55973.00
2018-08-23T20:21:24.998Z,55998.71
2018-08-23T20:23:54.129Z,55986.37
2018-08-23T20:26:23.331Z,55955.52
2018-08-23T20:28:52.484Z,55965.80
2018-08-23T20:31:21.574Z,55987.40
2018-08-23T20:33:50.719Z,55989.45
2018-08-23T20:36:19.803Z,56010.02
2018-08-23T20:38:48.969Z,55968.89
2018-08-23T20:41:18.140Z,55955.52
2018-08-23T20:43:47.358Z,55975.06
2018-08-23T20:46:16.543Z,55978.14
2018-08-23T20:48:45.735Z,55966.83
2018-08-23T20:51:14.844Z,55968.89
2018-08-23T20:53:43.989Z,56005.90
2018-08-23T20:56:13.107Z,55992.54
2018-08-23T20:58:42.268Z,55979.17
2018-08-23T21:01:11.396Z,56001.79
2018-08-23T21:03:40.536Z,55993.57
2018-08-23T21:06:09.695Z,55979.17
2018-08-23T21:08:38.870Z,55989.45
2018-08-23T21:11:08.042Z,56012.07
2018-08-23T21:13:37.262Z,55973.00
2018-08-23T21:16:06.399Z,55991.51
2018-08-23T21:18:35.545Z,56004.87
2018-08-23T21:21:04.692Z,55997.68
2018-08-23T21:23:33.891Z,55962.72
2018-08-23T21:26:03.090Z,55983.28
2018-08-23T21:28:32.254Z,56005.90
2018-08-23T21:31:01.518Z,56008.99
2018-08-23T21:33:30.638Z,55985.34
2018-08-23T21:36:00.079Z,55999.73
2018-08-23T21:38:29.280Z,56010.02
2018-08-23T21:40:58.436Z,55993.57
2018-08-23T21:43:27.531Z,55994.59
2018-08-23T21:45:56.651Z,55997.68
2018-08-23T21:48:25.852Z,55980.20
2018-08-23T21:50:55.021Z,55978.14
2018-08-23T21:53:24.131Z,55998.71
2018-08-23T21:55:53.325Z,55998.71
2018-08-23T21:58:22.557Z,55995.62
2018-08-23T22:00:54.712Z,56014.13
2018-08-23T22:03:24.272Z,56005.90
2018-08-23T22:05:53.473Z,56017.21
2018-08-23T22:08:22.657Z,56020.30
2018-08-23T22:10:51.790Z,55995.62
2018-08-23T22:13:20.925Z,56007.96
2018-08-23T22:15:50.373Z,55996.65
2018-08-23T22:18:20.049Z,56018.24
2018-08-23T22:20:49.223Z,56006.93
2018-08-23T22:23:18.378Z,56024.41
2018-08-23T22:25:47.544Z,56016.19
2018-08-23T22:28:16.746Z,56006.93
2018-08-23T22:30:45.917Z,56013.10
2018-08-23T22:33:15.110Z,55989.45
2018-08-23T22:35:44.306Z,55993.57
2018-08-23T22:38:13.531Z,56001.79
2018-08-23T22:40:42.745Z,55980.20
2018-08-23T22:43:12.084Z,56016.19
2018-08-23T22:45:41.242Z,56025.44
2018-08-23T22:48:10.510Z,55982.25
2018-08-23T22:50:39.683Z,56030.58
2018-08-23T22:53:08.849Z,56030.58
2018-08-23T22:55:38.066Z,56028.52
2018-08-23T22:58:07.258Z,55996.65
2018-08-23T23:00:40.751Z,56021.33
2018-08-23T23:03:15.195Z,56024.41
2018-08-23T23:05:44.866Z,56022.36
2018-08-23T23:08:14.097Z,56008.99
2018-08-23T23:10:43.335Z,56000.76
2018-08-23T23:13:12.568Z,56036.75
2018-08-23T23:15:41.749Z,56038.81
2018-08-23T23:18:10.940Z,56036.75
2018-08-23T23:20:40.077Z,56036.75
2018-08-23T23:23:09.206Z,56003.85
2018-08-23T23:25:38.413Z,56036.75
2018-08-23T23:28:07.585Z,56039.84
2018-08-23T23:30:36.746Z,56016.19
2018-08-23T23:33:05.883Z,56035.72
2018-08-23T23:35:35.075Z,56010.02
2018-08-23T23:38:04.260Z,56048.06
2018-08-23T23:40:33.400Z,56029.55
2018-08-23T23:43:02.535Z,56022.36
2018-08-23T23:45:31.744Z,56028.52
2018-08-23T23:48:00.892Z,55997.68
2018-08-23T23:50:30.044Z,56026.47
2018-08-23T23:52:59.151Z,56021.33
2018-08-23T23:55:28.283Z,56038.81
2018-08-23T23:57:57.449Z,56034.70
